Time;durP1;ratioP1;P1;durP2;ratioP2;P2;SDS_P1;SDS_P2;PMS_P1;PMS_P2;Temp;Humidity;BMP_temperature;BMP_pressure;BME280_temperature;BME280_humidity;BME280_pressure;Samples;Min_cycle;Max_cycle;Signal;HPM_P1;HPM_P2
2022/12/18 00:00:47;;;;;;;113.18;37.85;;;-4.30;99.90;;;;;;4966489;28;20046;-59
2022/12/18 00:03:16;;;;;;;114.53;36.67;;;-3.90;99.90;;;;;;4964978;28;20039;-57
2022/12/18 00:05:49;;;;;;;141.70;45.85;;;-4.30;99.90;;;;;;4977177;28;20129;-58
2022/12/18 00:08:14;;;;;;;99.15;33.15;;;-4.20;99.90;;;;;;4966147;28;20054;-58
2022/12/18 00:10:41;;;;;;;134.05;56.78;;;-4.20;99.90;;;;;;4965784;28;20046;-59
2022/12/18 00:13:06;;;;;;;87.70;32.38;;;-2.80;99.90;;;;;;4965343;28;20058;-58
2022/12/18 00:15:36;;;;;;;136.35;43.42;;;-4.10;99.90;;;;;;4966121;28;20604;-56
2022/12/18 00:18:02;;;;;;;97.85;31.33;;;-3.60;99.90;;;;;;4965777;28;20042;-55
2022/12/18 00:20:28;;;;;;;92.68;33.80;;;-3.80;99.90;;;;;;4964747;28;20106;-59
2022/12/18 00:22:54;;;;;;;84.10;32.38;;;-4.00;99.90;;;;;;4965694;28;20125;-58
2022/12/18 00:25:20;;;;;;;83.18;32.45;;;-3.80;99.90;;;;;;4965847;28;20086;-57
2022/12/18 00:27:46;;;;;;;91.22;33.30;;;-3.40;99.90;;;;;;4965521;28;20145;-59
2022/12/18 00:30:12;;;;;;;90.25;36.90;;;-4.20;99.90;;;;;;4964351;28;20049;-58
2022/12/18 00:32:38;;;;;;;78.78;26.27;;;-4.20;99.90;;;;;;4965994;28;20823;-58
2022/12/18 00:35:05;;;;;;;104.65;35.90;;;-1.90;99.90;;;;;;4965782;28;20050;-56
2022/12/18 00:37:31;;;;;;;96.00;36.80;;;-3.90;99.90;;;;;;4966403;28;20043;-59
2022/12/18 00:39:56;;;;;;;85.22;28.75;;;-3.90;99.90;;;;;;4965181;28;20077;-59
2022/12/18 00:45:06;;;;;;;122.68;41.17;;;-3.90;99.90;;;;;;4965360;28;20185;-59
2022/12/18 00:47:32;;;;;;;78.00;26.98;;;-3.90;99.90;;;;;;4965738;28;20118;-59
2022/12/18 00:49:58;;;;;;;90.93;30.75;;;-4.10;99.90;;;;;;4964758;28;20126;-58
2022/12/18 00:52:23;;;;;;;120.80;42.13;;;-3.90;99.90;;;;;;4966344;28;20047;-59
2022/12/18 00:54:49;;;;;;;93.07;32.05;;;-4.10;99.90;;;;;;4965041;28;20054;-59
2022/12/18 00:57:15;;;;;;;91.20;31.90;;;-4.20;99.90;;;;;;4965850;28;20134;-57
2022/12/18 00:59:40;;;;;;;116.57;40.53;;;-4.30;99.90;;;;;;4965597;28;20128;-59
2022/12/18 01:02:06;;;;;;;116.88;40.00;;;-3.20;99.90;;;;;;4965506;28;20089;-58
2022/12/18 01:04:33;;;;;;;113.97;37.20;;;-4.00;99.90;;;;;;4968156;28;20051;-58
2022/12/18 01:06:58;;;;;;;78.43;25.83;;;-4.40;99.90;;;;;;4972710;28;20398;-59
2022/12/18 01:09:24;;;;;;;101.22;35.15;;;-4.40;99.90;;;;;;4965896;28;20062;-58
2022/12/18 01:11:50;;;;;;;79.78;26.13;;;-4.30;99.90;;;;;;4965678;28;20470;-56
2022/12/18 01:14:15;;;;;;;106.32;36.58;;;-3.40;99.90;;;;;;4964803;28;20742;-58
2022/12/18 01:16:41;;;;;;;105.57;33.20;;;-4.40;99.90;;;;;;4965465;28;20050;-58
2022/12/18 01:19:07;;;;;;;65.35;24.45;;;-3.90;99.90;;;;;;4963180;28;20054;-58
2022/12/18 01:21:33;;;;;;;101.65;33.83;;;-4.50;99.90;;;;;;4965464;28;20794;-58
2022/12/18 01:23:58;;;;;;;121.32;38.58;;;-4.10;99.90;;;;;;4964684;28;20533;-59
2022/12/18 01:26:27;;;;;;;133.55;42.38;;;-4.30;99.90;;;;;;4965279;28;20047;-58
2022/12/18 01:28:55;;;;;;;98.30;33.58;;;-4.40;99.90;;;;;;4965848;28;20143;-58
2022/12/18 01:31:26;;;;;;;94.60;32.42;;;-3.20;99.90;;;;;;4979592;28;20094;-58
2022/12/18 01:33:53;;;;;;;89.78;28.90;;;-4.40;99.90;;;;;;4963378;28;20613;-57
2022/12/18 01:36:27;;;;;;;94.45;30.45;;;-4.20;99.90;;;;;;4965495;28;20141;-59
2022/12/18 01:38:53;;;;;;;133.15;44.03;;;-4.30;99.90;;;;;;4964539;28;20050;-57
2022/12/18 01:41:25;;;;;;;107.68;34.70;;;-3.60;99.90;;;;;;4964685;28;20051;-59
2022/12/18 01:43:58;;;;;;;127.20;41.30;;;-4.10;99.90;;;;;;4963204;28;20134;-59
2022/12/18 01:46:25;;;;;;;105.93;34.15;;;-4.20;99.90;;;;;;4964705;28;20140;-59
2022/12/18 01:49:00;;;;;;;90.43;30.15;;;-4.30;99.90;;;;;;4961886;28;20085;-59
2022/12/18 01:51:27;;;;;;;132.07;43.85;;;-4.30;99.90;;;;;;4965415;28;20055;-59
2022/12/18 01:53:53;;;;;;;119.07;40.60;;;-4.20;99.90;;;;;;4963879;28;20612;-58
2022/12/18 01:56:20;;;;;;;132.38;42.97;;;-4.20;99.90;;;;;;4964726;28;20054;-57
2022/12/18 01:58:55;;;;;;;101.32;33.90;;;-4.50;99.90;;;;;;4964393;28;20050;-59
2022/12/18 02:01:25;;;;;;;93.50;33.38;;;-4.30;99.90;;;;;;4983516;28;20694;-59
2022/12/18 02:03:51;;;;;;;115.95;37.55;;;-3.10;99.90;;;;;;4980880;28;20495;-57
2022/12/18 02:06:33;;;;;;;134.77;43.13;;;-4.50;99.90;;;;;;4972637;28;20043;-59
2022/12/18 02:09:13;;;;;;;135.00;42.80;;;-4.40;99.90;;;;;;4962299;28;20043;-57
2022/12/18 02:12:04;;;;;;;111.65;36.85;;;-4.50;99.90;;;;;;4964130;28;20433;-58
2022/12/18 02:14:51;;;;;;;72.55;25.80;;;-2.40;99.90;;;;;;4963664;28;20055;-59
2022/12/18 02:17:22;;;;;;;103.88;34.13;;;-4.40;99.90;;;;;;4964145;28;20489;-55
2022/12/18 02:19:59;;;;;;;111.25;40.20;;;-4.60;99.90;;;;;;4962663;28;20043;-58
2022/12/18 02:22:57;;;;;;;81.68;28.73;;;-4.40;99.90;;;;;;4964810;28;20411;-59
2022/12/18 02:25:34;;;;;;;79.13;27.63;;;-4.60;99.90;;;;;;4973873;28;20106;-59
2022/12/18 02:28:04;;;;;;;103.82;37.15;;;-4.00;99.90;;;;;;4964613;28;20055;-59
2022/12/18 02:30:33;;;;;;;90.85;34.22;;;-4.60;99.90;;;;;;4963745;28;20057;-58
2022/12/18 02:33:01;;;;;;;75.55;29.45;;;-4.60;99.90;;;;;;4963357;28;20051;-58
2022/12/18 02:35:30;;;;;;;101.95;38.20;;;-4.50;99.90;;;;;;4964602;28;20050;-58
2022/12/18 02:37:56;;;;;;;98.70;33.72;;;-4.70;99.90;;;;;;4964329;28;20122;-59
2022/12/18 02:40:24;;;;;;;93.80;32.67;;;-4.80;99.90;;;;;;4962485;28;20069;-58
2022/12/18 02:42:50;;;;;;;107.00;40.65;;;-3.00;99.90;;;;;;4964717;28;20390;-58
2022/12/18 02:45:16;;;;;;;113.45;42.55;;;-4.70;99.90;;;;;;4964167;28;20053;-59
2022/12/18 02:47:45;;;;;;;84.65;33.38;;;-4.20;99.90;;;;;;4962701;28;20042;-59
2022/12/18 02:50:29;;;;;;;85.63;33.13;;;-4.70;99.90;;;;;;4961247;28;20062;-57
2022/12/18 02:53:01;;;;;;;81.22;29.60;;;-4.70;99.90;;;;;;4964198;28;20362;-58
2022/12/18 02:55:42;;;;;;;102.53;38.90;;;-4.90;99.90;;;;;;4964144;28;20401;-56
2022/12/18 02:58:17;;;;;;;100.40;37.35;;;-4.30;99.90;;;;;;4962338;28;20447;-58
2022/12/18 03:01:06;;;;;;;82.45;32.40;;;-4.80;99.90;;;;;;4962662;28;20058;-59
2022/12/18 03:03:47;;;;;;;73.80;25.70;;;-4.90;99.90;;;;;;4962938;28;20502;-58
2022/12/18 03:06:35;;;;;;;108.28;37.25;;;-4.90;99.90;;;;;;4974542;28;20074;-58
2022/12/18 03:09:14;;;;;;;97.53;35.75;;;-3.80;99.90;;;;;;4982775;28;20481;-58
2022/12/18 03:14:31;;;;;;;117.88;41.40;;;-5.10;99.90;;;;;;4981367;28;20061;-59
2022/12/18 03:17:01;;;;;;;114.45;41.35;;;-5.10;99.90;;;;;;4983363;28;20050;-61
2022/12/18 03:19:31;;;;;;;126.68;45.90;;;-5.30;99.90;;;;;;4982147;28;20058;-57
2022/12/18 03:22:00;;;;;;;113.60;39.08;;;-5.20;99.90;;;;;;4983400;28;20108;-59
2022/12/18 03:24:31;;;;;;;83.88;30.55;;;-5.40;99.90;;;;;;4983189;28;20490;-59
2022/12/18 03:27:00;;;;;;;67.60;24.55;;;-5.20;99.90;;;;;;4983666;28;20176;-58
2022/12/18 03:29:35;;;;;;;100.13;33.75;;;-5.10;99.90;;;;;;4983362;28;20051;-58
2022/12/18 03:32:25;;;;;;;95.78;35.40;;;-5.40;99.90;;;;;;4983769;28;20097;-58
2022/12/18 03:34:53;;;;;;;70.97;28.42;;;-5.30;99.90;;;;;;4982515;28;20054;-59
2022/12/18 03:37:19;;;;;;;58.90;22.55;;;-3.70;99.90;;;;;;4982859;28;20121;-59
2022/12/18 03:39:45;;;;;;;99.85;36.20;;;-5.50;99.90;;;;;;4983183;28;20354;-56
2022/12/18 03:42:32;;;;;;;73.78;29.50;;;-4.70;99.90;;;;;;4982590;28;20486;-59
2022/12/18 03:45:08;;;;;;;66.93;25.52;;;-5.60;99.90;;;;;;4981465;28;20046;-57
2022/12/18 03:47:38;;;;;;;71.05;29.45;;;-5.40;99.90;;;;;;4982565;28;20268;-59
2022/12/18 03:50:18;;;;;;;75.60;28.55;;;-4.90;99.90;;;;;;4980972;28;20675;-58
2022/12/18 03:53:08;;;;;;;74.10;29.48;;;-5.70;99.90;;;;;;4982388;28;20046;-58
2022/12/18 03:55:35;;;;;;;54.33;23.50;;;-5.60;99.90;;;;;;4982345;28;20585;-58
2022/12/18 03:58:04;;;;;;;58.35;24.35;;;-5.60;99.90;;;;;;4983229;28;20141;-57
2022/12/18 04:00:31;;;;;;;58.20;26.27;;;-5.80;99.90;;;;;;4982754;28;20046;-59
2022/12/18 04:03:01;;;;;;;60.40;25.65;;;-5.80;99.90;;;;;;4981452;28;20043;-58
2022/12/18 04:05:28;;;;;;;52.65;22.35;;;-5.80;99.90;;;;;;4974977;28;20046;-56
2022/12/18 04:07:56;;;;;;;54.22;23.75;;;-5.90;99.90;;;;;;4963233;28;20050;-58
2022/12/18 04:10:21;;;;;;;50.17;21.55;;;-5.80;99.90;;;;;;4962672;28;20085;-56
2022/12/18 04:12:47;;;;;;;47.22;19.95;;;-4.70;99.90;;;;;;4963388;28;20735;-58
2022/12/18 04:15:14;;;;;;;37.75;17.05;;;-5.90;99.90;;;;;;4962518;28;20126;-56
2022/12/18 04:17:49;;;;;;;43.17;19.70;;;-5.60;99.90;;;;;;4963169;28;20071;-57
2022/12/18 04:20:15;;;;;;;46.83;21.00;;;-5.80;99.90;;;;;;4961321;28;20068;-58
2022/12/18 04:22:41;;;;;;;46.45;18.85;;;-5.90;99.90;;;;;;4963289;28;20094;-58
2022/12/18 04:25:07;;;;;;;56.83;24.10;;;-5.90;99.90;;;;;;4962738;28;20482;-58
2022/12/18 04:27:33;;;;;;;43.88;20.70;;;-5.80;99.90;;;;;;4964905;28;20047;-58
2022/12/18 04:29:58;;;;;;;54.83;23.17;;;-5.90;99.90;;;;;;4966295;28;20112;-57
2022/12/18 04:32:24;;;;;;;62.00;27.33;;;-6.00;99.90;;;;;;4966259;28;20418;-58
2022/12/18 04:34:49;;;;;;;48.65;20.15;;;-6.00;99.90;;;;;;4965570;28;20046;-58
2022/12/18 04:37:15;;;;;;;64.25;27.45;;;-6.00;99.90;;;;;;4964156;28;20516;-58
2022/12/18 04:39:41;;;;;;;61.33;26.48;;;-6.00;99.90;;;;;;4965020;28;20054;-58
2022/12/18 04:42:06;;;;;;;36.40;16.15;;;-6.10;99.90;;;;;;4965329;28;20513;-58
2022/12/18 04:44:32;;;;;;;60.65;24.67;;;-6.10;99.90;;;;;;4966351;28;20057;-57
2022/12/18 04:46:58;;;;;;;60.97;26.27;;;-6.20;99.90;;;;;;4964019;28;20166;-59
2022/12/18 04:49:23;;;;;;;59.03;25.65;;;-6.00;99.90;;;;;;4964709;28;20126;-56
2022/12/18 04:51:49;;;;;;;46.83;20.98;;;-6.00;99.90;;;;;;4966251;28;20046;-57
2022/12/18 04:54:15;;;;;;;45.75;21.10;;;-6.00;99.90;;;;;;4965829;28;20050;-58
2022/12/18 04:56:41;;;;;;;56.10;26.48;;;-6.00;99.90;;;;;;4963818;28;20042;-59
2022/12/18 04:59:07;;;;;;;58.03;24.98;;;-5.90;99.90;;;;;;4964858;28;20465;-56
2022/12/18 05:01:33;;;;;;;38.25;17.27;;;-6.00;99.90;;;;;;4969580;28;20046;-59
2022/12/18 05:03:59;;;;;;;37.58;16.73;;;-6.10;99.90;;;;;;4978447;28;20050;-58
2022/12/18 05:06:25;;;;;;;51.20;22.35;;;-6.10;99.90;;;;;;4971801;28;20402;-58
2022/12/18 05:08:50;;;;;;;49.03;22.48;;;-6.00;99.90;;;;;;4963873;28;20050;-57
2022/12/18 05:11:16;;;;;;;37.60;16.85;;;-6.00;99.90;;;;;;4965244;28;20208;-58
2022/12/18 05:13:43;;;;;;;37.90;16.60;;;-6.00;99.90;;;;;;4964147;28;20265;-56
2022/12/18 05:16:10;;;;;;;49.08;23.05;;;-5.80;99.90;;;;;;4964065;28;20046;-56
2022/12/18 05:18:36;;;;;;;45.95;22.50;;;-6.20;99.90;;;;;;4964647;28;20051;-59
2022/12/18 05:21:02;;;;;;;44.55;17.08;;;-5.90;99.90;;;;;;4965126;28;20133;-57
2022/12/18 05:23:28;;;;;;;35.00;16.95;;;-5.90;99.90;;;;;;4964408;28;20042;-55
2022/12/18 05:25:58;;;;;;;33.10;14.30;;;-5.90;99.90;;;;;;4965946;28;20049;-58
2022/12/18 05:28:26;;;;;;;36.45;16.67;;;-6.00;99.90;;;;;;4965071;28;20054;-58
2022/12/18 05:30:53;;;;;;;46.03;20.65;;;-6.10;99.90;;;;;;4963725;28;20101;-59
2022/12/18 05:33:20;;;;;;;39.67;17.10;;;-6.10;99.90;;;;;;4963335;28;20151;-57
2022/12/18 05:35:51;;;;;;;36.47;17.25;;;-5.90;99.90;;;;;;4965183;28;20047;-58
2022/12/18 05:38:18;;;;;;;45.40;21.23;;;-4.90;99.90;;;;;;4963741;28;20047;-57
2022/12/18 05:40:44;;;;;;;31.35;13.73;;;-6.00;99.90;;;;;;4963882;28;20047;-56
2022/12/18 05:43:10;;;;;;;46.08;20.83;;;-6.10;99.90;;;;;;4965013;28;20680;-55
2022/12/18 05:45:39;;;;;;;38.45;19.38;;;-6.10;99.90;;;;;;4964931;28;20440;-56
2022/12/18 05:48:05;;;;;;;42.40;17.05;;;-6.10;99.90;;;;;;4963940;28;20050;-56
2022/12/18 05:50:33;;;;;;;32.58;15.38;;;-6.00;99.90;;;;;;4963000;28;20101;-59
2022/12/18 05:52:58;;;;;;;41.58;20.25;;;-6.20;99.90;;;;;;4964745;28;20150;-59
2022/12/18 05:55:25;;;;;;;26.20;13.85;;;-6.00;99.90;;;;;;4964516;28;20054;-56
2022/12/18 05:57:51;;;;;;;32.63;17.02;;;-6.50;99.90;;;;;;4962576;28;20054;-58
2022/12/18 06:00:17;;;;;;;39.38;17.42;;;-6.10;99.90;;;;;;4964839;28;20050;-59
2022/12/18 06:02:46;;;;;;;38.33;16.80;;;-6.10;99.90;;;;;;4964433;28;20855;-59
2022/12/18 06:05:12;;;;;;;37.85;17.50;;;-6.20;99.90;;;;;;4972828;28;20046;-58
2022/12/18 06:07:38;;;;;;;32.88;14.85;;;-6.20;99.90;;;;;;4965719;28;20045;-57
2022/12/18 06:10:04;;;;;;;41.53;19.48;;;-6.20;99.90;;;;;;4963310;28;20046;-59
2022/12/18 06:12:30;;;;;;;40.78;19.63;;;-6.20;99.90;;;;;;4963934;28;20058;-58
2022/12/18 06:14:55;;;;;;;48.28;22.00;;;-6.10;99.90;;;;;;4964295;28;20104;-58
2022/12/18 06:17:21;;;;;;;35.58;17.30;;;-6.20;99.90;;;;;;4963573;28;20054;-57
2022/12/18 06:19:47;;;;;;;36.15;17.33;;;-6.20;99.90;;;;;;4962822;28;20125;-58
2022/12/18 06:22:12;;;;;;;32.10;13.55;;;-6.50;99.90;;;;;;4964369;28;20062;-55
2022/12/18 06:24:38;;;;;;;36.35;19.17;;;-6.20;99.90;;;;;;4964011;28;20058;-57
2022/12/18 06:27:04;;;;;;;45.75;22.52;;;-6.30;99.90;;;;;;4963930;28;20038;-59
2022/12/18 06:29:29;;;;;;;30.50;11.93;;;-6.20;99.90;;;;;;4964574;28;20445;-58
2022/12/18 06:31:55;;;;;;;32.83;15.10;;;-6.20;99.90;;;;;;4964542;28;20493;-59
2022/12/18 06:34:21;;;;;;;34.75;17.70;;;-6.30;99.90;;;;;;4962911;28;20043;-56
2022/12/18 06:36:46;;;;;;;33.60;18.17;;;-6.30;99.90;;;;;;4963919;28;20042;-55
2022/12/18 06:39:12;;;;;;;41.90;20.10;;;-6.40;99.90;;;;;;4963289;28;20062;-57
2022/12/18 06:41:37;;;;;;;34.35;16.17;;;-6.10;99.90;;;;;;4964153;28;20051;-59
2022/12/18 06:44:03;;;;;;;37.25;18.80;;;-6.40;99.90;;;;;;4962937;28;20100;-55
2022/12/18 06:46:29;;;;;;;36.85;18.48;;;-6.40;99.90;;;;;;4963768;28;20035;-59
2022/12/18 06:48:54;;;;;;;36.65;16.55;;;-6.40;99.90;;;;;;4961134;28;20043;-58
2022/12/18 06:51:22;;;;;;;34.65;16.30;;;-6.40;99.90;;;;;;4963696;28;20163;-57
2022/12/18 06:53:48;;;;;;;36.70;18.42;;;-5.50;99.90;;;;;;4961605;28;20773;-58
2022/12/18 06:56:14;;;;;;;30.10;15.32;;;-6.50;99.90;;;;;;4962491;28;20549;-58
2022/12/18 06:58:40;;;;;;;29.13;15.75;;;-6.20;99.90;;;;;;4963411;28;20081;-59
2022/12/18 07:01:09;;;;;;;34.42;16.88;;;-6.10;99.90;;;;;;4963239;28;20141;-57
2022/12/18 07:03:35;;;;;;;31.38;15.07;;;-6.40;99.90;;;;;;4963279;28;20378;-58
2022/12/18 07:06:02;;;;;;;35.63;18.20;;;-6.40;99.90;;;;;;4973762;28;20047;-58
2022/12/18 07:08:29;;;;;;;25.20;12.98;;;-6.50;99.90;;;;;;4963302;28;20134;-59
2022/12/18 07:10:55;;;;;;;36.58;18.90;;;-6.60;99.90;;;;;;4962623;28;20049;-57
2022/12/18 07:13:20;;;;;;;28.63;12.63;;;-6.60;99.90;;;;;;4962250;28;20134;-57
2022/12/18 07:15:46;;;;;;;37.78;19.25;;;-6.60;99.90;;;;;;4963580;28;20090;-58
2022/12/18 07:18:12;;;;;;;27.25;13.38;;;-6.40;99.90;;;;;;4976237;28;20038;-58
2022/12/18 07:20:37;;;;;;;39.83;21.33;;;-6.60;99.90;;;;;;4982257;28;20489;-57
2022/12/18 07:23:04;;;;;;;35.28;17.98;;;-6.50;99.90;;;;;;4982289;28;20034;-56
2022/12/18 07:25:34;;;;;;;38.03;20.02;;;-6.60;99.90;;;;;;4982787;28;20090;-55
2022/12/18 07:28:00;;;;;;;33.55;16.50;;;-6.40;99.90;;;;;;4982684;28;20043;-58
2022/12/18 07:30:26;;;;;;;39.45;19.63;;;-6.50;99.90;;;;;;4982158;28;20049;-57
2022/12/18 07:32:51;;;;;;;33.05;15.68;;;-6.50;99.90;;;;;;4981955;28;20078;-59
2022/12/18 07:35:17;;;;;;;38.72;19.58;;;-6.40;99.90;;;;;;4982477;28;20046;-59
2022/12/18 07:37:43;;;;;;;25.13;12.07;;;-6.60;99.90;;;;;;4983309;28;20344;-56
2022/12/18 07:40:09;;;;;;;34.67;17.42;;;-6.40;99.90;;;;;;4981808;28;20042;-59
2022/12/18 07:42:35;;;;;;;32.75;14.80;;;-6.50;99.90;;;;;;4982321;28;20053;-58
2022/12/18 07:45:02;;;;;;;29.65;13.82;;;-6.40;99.90;;;;;;4982884;28;20125;-57
2022/12/18 07:47:28;;;;;;;27.25;14.02;;;-6.30;99.90;;;;;;4982148;28;20129;-59
2022/12/18 07:49:54;;;;;;;26.83;13.68;;;-6.30;99.90;;;;;;4981393;28;20509;-59
2022/12/18 07:52:20;;;;;;;31.45;16.48;;;-6.30;99.90;;;;;;4982742;28;20050;-58
2022/12/18 07:54:48;;;;;;;26.55;13.25;;;-6.30;99.90;;;;;;4983184;28;20053;-59
2022/12/18 07:57:14;;;;;;;34.08;17.25;;;-6.30;99.90;;;;;;4981861;28;20057;-59
2022/12/18 07:59:40;;;;;;;34.45;18.73;;;-6.40;99.90;;;;;;4982265;28;20050;-58
2022/12/18 08:02:05;;;;;;;31.85;17.23;;;-6.30;99.90;;;;;;4985997;28;20047;-58
2022/12/18 08:04:31;;;;;;;36.80;18.95;;;-6.30;99.90;;;;;;4979025;28;20045;-59
2022/12/18 08:06:57;;;;;;;39.03;20.02;;;-6.30;99.90;;;;;;4972478;28;20047;-58
2022/12/18 08:09:22;;;;;;;34.78;18.85;;;-6.30;99.90;;;;;;4966876;28;20049;-57
2022/12/18 08:11:48;;;;;;;40.08;20.25;;;-6.30;99.90;;;;;;4966546;28;20035;-60
2022/12/18 08:14:14;;;;;;;32.15;17.48;;;-6.20;99.90;;;;;;4966410;28;20127;-59
2022/12/18 08:16:40;;;;;;;33.22;18.35;;;-6.10;99.90;;;;;;4965665;28;20094;-59
2022/12/18 08:19:05;;;;;;;37.92;20.02;;;-6.20;99.90;;;;;;4965540;28;20039;-59
2022/12/18 08:21:31;;;;;;;31.35;15.98;;;-6.10;99.90;;;;;;4965885;28;20054;-59
2022/12/18 08:23:59;;;;;;;37.95;19.15;;;-6.20;99.90;;;;;;4965264;28;20035;-56
2022/12/18 08:26:27;;;;;;;28.13;14.32;;;-5.70;99.90;;;;;;4966016;28;20039;-58
2022/12/18 08:28:55;;;;;;;33.15;18.90;;;-6.10;99.90;;;;;;4964126;28;20437;-59
2022/12/18 08:31:21;;;;;;;33.10;18.73;;;-6.10;99.90;;;;;;4965590;28;20042;-58
2022/12/18 08:33:49;;;;;;;33.72;18.75;;;-6.00;99.90;;;;;;4963232;28;20051;-54
2022/12/18 08:36:15;;;;;;;32.90;19.40;;;-5.90;99.90;;;;;;4966242;28;20098;-59
2022/12/18 08:38:41;;;;;;;30.83;18.00;;;-6.00;99.90;;;;;;4969144;28;20617;-59
2022/12/18 08:41:11;;;;;;;30.08;18.13;;;-5.80;99.90;;;;;;4970470;28;20053;-58
2022/12/18 08:46:22;;;;;;;28.13;16.35;;;-5.80;99.90;;;;;;4971118;28;20501;-59
2022/12/18 08:48:50;;;;;;;30.98;17.75;;;-5.80;99.90;;;;;;4970200;28;20102;-58
2022/12/18 08:51:17;;;;;;;29.40;17.17;;;-5.50;99.90;;;;;;4971250;28;20050;-58
2022/12/18 08:53:44;;;;;;;33.78;17.33;;;-5.70;99.90;;;;;;4970688;28;20145;-58
2022/12/18 08:56:10;;;;;;;31.95;17.85;;;-5.70;99.90;;;;;;4970979;28;20418;-59
2022/12/18 08:58:36;;;;;;;31.92;17.10;;;-5.70;99.90;;;;;;4971038;28;20054;-60
2022/12/18 09:01:07;;;;;;;29.10;15.05;;;-5.50;99.90;;;;;;4970819;28;20047;-58
2022/12/18 09:03:33;;;;;;;24.55;14.02;;;-5.60;99.90;;;;;;4969611;28;20396;-57
2022/12/18 09:06:01;;;;;;;29.15;16.80;;;-3.40;99.90;;;;;;4979550;28;20128;-59
2022/12/18 09:08:27;;;;;;;24.83;15.88;;;-5.40;99.90;;;;;;4969543;28;20058;-59
2022/12/18 09:10:54;;;;;;;26.58;15.88;;;-5.40;99.90;;;;;;4969753;28;20091;-58
2022/12/18 09:13:20;;;;;;;26.50;15.55;;;-5.40;99.90;;;;;;4976083;28;20042;-59
2022/12/18 09:15:52;;;;;;;24.48;14.77;;;-5.30;99.90;;;;;;4990027;28;20046;-59
2022/12/18 09:18:20;;;;;;;25.58;14.57;;;-5.20;99.90;;;;;;4989479;28;20046;-57
2022/12/18 09:20:46;;;;;;;24.70;14.43;;;-5.10;99.90;;;;;;4990044;28;20431;-58
2022/12/18 09:23:12;;;;;;;24.85;15.02;;;-3.00;99.90;;;;;;4980163;28;20078;-60
2022/12/18 09:25:38;;;;;;;23.73;14.57;;;-4.90;99.90;;;;;;4970621;28;20150;-59
2022/12/18 09:28:16;;;;;;;25.65;15.65;;;-4.70;99.90;;;;;;4969054;28;20096;-59
2022/12/18 09:30:44;;;;;;;24.08;13.85;;;-3.90;99.90;;;;;;4970005;28;20057;-59
2022/12/18 09:33:10;;;;;;;23.95;13.02;;;;;;;;;;4969496;28;20043;-59
2022/12/18 09:35:41;;;;;;;23.60;13.80;;;-4.30;99.90;;;;;;4970054;28;20050;-59
2022/12/18 09:38:08;;;;;;;18.27;11.32;;;-4.10;99.90;;;;;;4970159;28;20047;-59
2022/12/18 09:40:43;;;;;;;19.38;12.02;;;-3.90;99.90;;;;;;4968945;28;20054;-58
2022/12/18 09:43:34;;;;;;;14.80;9.02;;;-3.50;99.90;;;;;;4970596;28;20085;-60
2022/12/18 09:46:06;;;;;;;17.67;10.45;;;-3.50;99.90;;;;;;4970228;28;20146;-60
2022/12/18 09:48:36;;;;;;;15.18;10.43;;;-3.00;99.90;;;;;;4969632;28;20423;-59
2022/12/18 09:51:54;;;;;;;15.57;9.48;;;-2.50;99.90;;;;;;4970291;28;20383;-59
2022/12/18 09:54:33;;;;;;;16.65;9.90;;;-2.60;99.90;;;;;;4968743;28;20095;-60
2022/12/18 09:56:59;;;;;;;15.48;10.50;;;-2.10;99.90;;;;;;4970247;28;20055;-60
2022/12/18 09:59:39;;;;;;;16.48;11.15;;;-2.80;99.90;;;;;;4970263;28;20505;-57
2022/12/18 10:02:25;;;;;;;16.80;10.63;;;-2.10;99.90;;;;;;4969991;28;20058;-58
2022/12/18 10:05:16;;;;;;;13.18;8.57;;;-3.00;99.90;;;;;;4974236;28;20053;-59
2022/12/18 10:07:50;;;;;;;17.83;9.00;;;-3.20;99.90;;;;;;4988599;28;20085;-59
2022/12/18 10:10:22;;;;;;;14.40;9.07;;;-3.30;99.90;;;;;;4987912;28;20137;-59
2022/12/18 10:12:57;;;;;;;12.23;8.50;;;-2.80;99.90;;;;;;4989401;28;20097;-59
2022/12/18 10:15:32;;;;;;;15.07;10.13;;;-3.40;99.90;;;;;;4989630;28;20050;-61
2022/12/18 10:18:17;;;;;;;;;;;-3.30;99.90;;;;;;4988880;28;20069;-60
2022/12/18 10:20:51;;;;;;;14.07;9.07;;;-3.30;99.90;;;;;;4989302;28;20272;-59
2022/12/18 10:23:32;;;;;;;12.27;6.65;;;-3.00;99.90;;;;;;4986571;28;20050;-59
2022/12/18 10:26:07;;;;;;;12.35;6.55;;;-2.70;99.90;;;;;;4989495;28;20042;-59
2022/12/18 10:28:36;;;;;;;11.93;7.90;;;-1.90;99.90;;;;;;4987334;28;20047;-59
2022/12/18 10:31:02;;;;;;;12.85;8.00;;;-1.20;99.90;;;;;;4988172;28;20367;-59
2022/12/18 10:33:32;;;;;;;13.70;8.20;;;-0.50;99.90;;;;;;4986380;28;20058;-57
2022/12/18 10:35:58;;;;;;;12.60;8.10;;;1.50;99.90;;;;;;4988636;28;20065;-59
2022/12/18 10:38:27;;;;;;;11.77;7.43;;;0.70;99.90;;;;;;4989333;28;20497;-59
2022/12/18 10:40:58;;;;;;;13.05;8.60;;;0.30;99.90;;;;;;4989041;28;20046;-60
2022/12/18 10:43:25;;;;;;;11.15;7.63;;;0.30;99.90;;;;;;4980874;28;20049;-57
2022/12/18 10:46:19;;;;;;;11.05;7.53;;;0.70;99.90;;;;;;4969445;28;20133;-59
2022/12/18 10:48:48;;;;;;;13.73;8.13;;;1.30;99.90;;;;;;4976683;28;20140;-57
2022/12/18 10:51:40;;;;;;;11.45;7.25;;;0.70;99.90;;;;;;4988080;28;20054;-59
2022/12/18 10:54:13;;;;;;;12.88;7.70;;;1.20;99.90;;;;;;4981656;28;20449;-59
2022/12/18 10:56:39;;;;;;;10.30;6.65;;;0.00;99.90;;;;;;4981649;28;20080;-60
2022/12/18 10:59:10;;;;;;;12.93;8.65;;;-0.60;99.90;;;;;;4986094;28;20050;-58
2022/12/18 11:01:46;;;;;;;11.07;7.85;;;-0.80;99.90;;;;;;4983154;28;20143;-61
2022/12/18 11:04:45;;;;;;;13.70;8.38;;;-0.80;99.90;;;;;;4980848;28;20526;-61
2022/12/18 11:07:11;;;;;;;12.07;7.82;;;-1.30;99.90;;;;;;4993900;28;20058;-60
2022/12/18 11:09:39;;;;;;;13.32;7.43;;;-0.70;99.90;;;;;;4988334;28;20100;-59
2022/12/18 11:12:23;;;;;;;13.15;7.40;;;0.40;99.90;;;;;;4987759;28;20062;-59
2022/12/18 11:14:52;;;;;;;12.65;7.60;;;-1.40;99.90;;;;;;4988309;28;20397;-60
2022/12/18 11:17:33;;;;;;;9.60;7.03;;;-1.70;99.90;;;;;;4987393;28;20132;-64
2022/12/18 11:20:02;;;;;;;11.80;8.00;;;-1.50;99.90;;;;;;4983017;28;20622;-64
2022/12/18 11:22:33;;;;;;;13.73;7.50;;;-1.50;99.90;;;;;;4987536;28;20058;-65
2022/12/18 11:25:18;;;;;;;10.45;7.57;;;-1.70;99.90;;;;;;4987751;28;20047;-65
2022/12/18 11:27:53;;;;;;;11.60;7.40;;;-1.70;99.90;;;;;;4986625;28;20125;-64
2022/12/18 11:30:29;;;;;;;;;;;0.40;99.90;;;;;;4988149;28;20097;-64
2022/12/18 11:33:12;;;;;;;12.90;8.45;;;-1.80;99.90;;;;;;4987667;28;19928;-64
2022/12/18 11:35:58;;;;;;;11.45;7.57;;;-1.50;99.90;;;;;;4990194;28;20042;-64
2022/12/18 11:38:30;;;;;;;11.75;7.93;;;-1.80;99.90;;;;;;4990777;28;20058;-64
2022/12/18 11:41:01;;;;;;;14.65;9.85;;;-1.80;99.90;;;;;;4992423;28;20046;-64
2022/12/18 11:43:48;;;;;;;12.55;7.22;;;-1.70;99.90;;;;;;4991907;28;20042;-64
2022/12/18 11:46:37;;;;;;;11.02;7.63;;;-1.90;99.90;;;;;;4991751;28;20053;-64
2022/12/18 11:49:31;;;;;;;11.15;7.50;;;-1.80;99.90;;;;;;4990953;28;20050;-64
2022/12/18 11:52:23;;;;;;;13.30;8.02;;;-1.80;99.90;;;;;;4991751;28;20045;-64
2022/12/18 11:54:55;;;;;;;11.90;7.85;;;-1.80;99.90;;;;;;4991374;28;20045;-64
2022/12/18 11:57:59;;;;;;;12.07;7.80;;;-1.80;99.90;;;;;;4991266;28;20077;-64
2022/12/18 12:00:25;;;;;;;11.10;7.80;;;-1.50;99.90;;;;;;4991288;28;20057;-64
2022/12/18 12:03:06;;;;;;;12.85;7.55;;;-0.80;99.90;;;;;;4990809;28;20038;-64
2022/12/18 12:05:57;;;;;;;10.93;7.40;;;-1.70;99.90;;;;;;4982602;28;20128;-65
2022/12/18 12:08:29;;;;;;;12.93;7.40;;;-1.70;99.90;;;;;;4971874;28;20110;-64
2022/12/18 12:11:00;;;;;;;12.45;8.63;;;-1.80;99.90;;;;;;4972029;28;20089;-64
2022/12/18 12:14:03;;;;;;;10.90;7.57;;;-1.70;99.90;;;;;;4971911;28;20066;-64
2022/12/18 12:16:39;;;;;;;11.73;8.02;;;-1.70;99.90;;;;;;4971800;28;20051;-64
2022/12/18 12:19:39;;;;;;;11.15;8.05;;;-1.70;99.90;;;;;;4970621;28;20050;-64
2022/12/18 12:22:22;;;;;;;10.98;7.50;;;-1.60;99.90;;;;;;4971461;28;20046;-64
2022/12/18 12:24:57;;;;;;;11.18;7.38;;;-1.60;99.90;;;;;;4971879;28;20058;-64
2022/12/18 12:27:44;;;;;;;11.75;7.55;;;-1.60;99.90;;;;;;4970944;28;20145;-64
2022/12/18 12:30:24;;;;;;;9.55;5.53;;;-1.60;99.90;;;;;;4971571;28;20054;-64
2022/12/18 12:33:28;;;;;;;11.05;7.88;;;-1.50;99.90;;;;;;4970779;28;20047;-64
2022/12/18 12:36:06;;;;;;;12.70;8.43;;;-1.50;99.90;;;;;;4990898;28;20062;-64
2022/12/18 12:38:40;;;;;;;11.77;7.70;;;-1.50;99.90;;;;;;4970032;28;20131;-64
2022/12/18 12:43:12;;;;;;;11.40;7.93;;;-1.50;99.90;;;;;;4971166;28;20062;-64
2022/12/18 12:44:01;;;;;;;12.43;7.85;;;-1.50;99.90;;;;;;4971528;28;20053;-64
2022/12/18 12:46:29;;;;;;;10.98;8.15;;;0.00;99.90;;;;;;4970407;28;20034;-64
2022/12/18 12:48:58;;;;;;;12.30;7.72;;;-1.50;99.90;;;;;;4970533;28;20051;-64
2022/12/18 12:51:36;;;;;;;11.13;7.93;;;-1.40;99.90;;;;;;4969702;28;20051;-64
2022/12/18 12:54:10;;;;;;;11.38;8.32;;;-1.50;99.90;;;;;;4970957;28;20537;-64